sensor_id;sensor_type;location;lat;lon;timestamp;temperature;humidity
25732;DHT22;13585;50.864;4.406;2023-02-21T00:01:36;16.30;71.60
25732;DHT22;13585;50.864;4.406;2023-02-21T00:04:21;16.20;71.50
25732;DHT22;13585;50.864;4.406;2023-02-21T00:07:05;16.30;71.50
25732;DHT22;13585;50.864;4.406;2023-02-21T00:09:49;16.30;71.50
25732;DHT22;13585;50.864;4.406;2023-02-21T00:12:33;16.30;71.50
25732;DHT22;13585;50.864;4.406;2023-02-21T00:15:17;16.30;71.50
25732;DHT22;13585;50.864;4.406;2023-02-21T00:18:01;16.30;71.50
25732;DHT22;13585;50.864;4.406;2023-02-21T00:20:46;16.30;71.40
25732;DHT22;13585;50.864;4.406;2023-02-21T00:23:34;16.30;71.40
25732;DHT22;13585;50.864;4.406;2023-02-21T00:26:19;16.30;71.40
25732;DHT22;13585;50.864;4.406;2023-02-21T00:29:03;16.30;71.40
25732;DHT22;13585;50.864;4.406;2023-02-21T00:31:48;16.30;71.40
25732;DHT22;13585;50.864;4.406;2023-02-21T00:34:32;16.30;71.40
25732;DHT22;13585;50.864;4.406;2023-02-21T00:37:17;16.30;71.30
25732;DHT22;13585;50.864;4.406;2023-02-21T00:40:01;16.30;71.30
25732;DHT22;13585;50.864;4.406;2023-02-21T00:42:45;16.30;71.30
25732;DHT22;13585;50.864;4.406;2023-02-21T00:45:29;16.30;71.20
25732;DHT22;13585;50.864;4.406;2023-02-21T00:48:22;16.30;71.20
25732;DHT22;13585;50.864;4.406;2023-02-21T00:51:07;16.30;71.30
25732;DHT22;13585;50.864;4.406;2023-02-21T00:53:52;16.30;71.20
25732;DHT22;13585;50.864;4.406;2023-02-21T00:56:36;16.30;71.20
25732;DHT22;13585;50.864;4.406;2023-02-21T00:59:20;16.30;71.20
25732;DHT22;13585;50.864;4.406;2023-02-21T01:02:05;16.30;71.20
25732;DHT22;13585;50.864;4.406;2023-02-21T01:04:49;16.20;71.10
25732;DHT22;13585;50.864;4.406;2023-02-21T01:07:33;16.30;71.10
25732;DHT22;13585;50.864;4.406;2023-02-21T01:10:18;16.30;71.10
25732;DHT22;13585;50.864;4.406;2023-02-21T01:13:03;16.30;71.10
25732;DHT22;13585;50.864;4.406;2023-02-21T01:15:47;16.20;71.00
25732;DHT22;13585;50.864;4.406;2023-02-21T01:18:31;16.30;71.10
25732;DHT22;13585;50.864;4.406;2023-02-21T01:21:17;16.20;71.00
25732;DHT22;13585;50.864;4.406;2023-02-21T01:24:03;16.20;70.90
25732;DHT22;13585;50.864;4.406;2023-02-21T01:26:48;16.30;71.00
25732;DHT22;13585;50.864;4.406;2023-02-21T01:29:32;16.20;70.90
25732;DHT22;13585;50.864;4.406;2023-02-21T01:32:17;16.20;70.90
25732;DHT22;13585;50.864;4.406;2023-02-21T01:35:02;16.30;71.00
25732;DHT22;13585;50.864;4.406;2023-02-21T01:37:46;16.30;70.90
25732;DHT22;13585;50.864;4.406;2023-02-21T01:40:30;16.30;71.10
25732;DHT22;13585;50.864;4.406;2023-02-21T01:43:23;16.30;70.90
25732;DHT22;13585;50.864;4.406;2023-02-21T01:46:12;16.30;70.90
25732;DHT22;13585;50.864;4.406;2023-02-21T01:48:59;16.20;70.80
25732;DHT22;13585;50.864;4.406;2023-02-21T01:51:44;16.30;70.80
25732;DHT22;13585;50.864;4.406;2023-02-21T01:54:31;16.30;70.80
25732;DHT22;13585;50.864;4.406;2023-02-21T01:57:17;16.20;70.70
25732;DHT22;13585;50.864;4.406;2023-02-21T02:00:06;16.30;70.80
25732;DHT22;13585;50.864;4.406;2023-02-21T02:03:03;16.30;70.80
25732;DHT22;13585;50.864;4.406;2023-02-21T02:06:04;16.30;70.80
25732;DHT22;13585;50.864;4.406;2023-02-21T02:08:49;16.20;70.70
25732;DHT22;13585;50.864;4.406;2023-02-21T02:11:51;16.30;70.70
25732;DHT22;13585;50.864;4.406;2023-02-21T02:18:00;16.20;70.80
25732;DHT22;13585;50.864;4.406;2023-02-21T02:31:34;16.20;70.70
25732;DHT22;13585;50.864;4.406;2023-02-21T02:37:57;16.20;70.70
25732;DHT22;13585;50.864;4.406;2023-02-21T02:40:41;16.20;70.70
25732;DHT22;13585;50.864;4.406;2023-02-21T02:43:17;16.20;70.50
25732;DHT22;13585;50.864;4.406;2023-02-21T02:46:01;16.20;70.60
25732;DHT22;13585;50.864;4.406;2023-02-21T02:48:30;16.20;70.60
25732;DHT22;13585;50.864;4.406;2023-02-21T02:50:59;16.20;70.60
25732;DHT22;13585;50.864;4.406;2023-02-21T02:53:29;16.20;70.60
25732;DHT22;13585;50.864;4.406;2023-02-21T02:56:09;16.20;70.50
25732;DHT22;13585;50.864;4.406;2023-02-21T02:58:45;16.20;70.60
25732;DHT22;13585;50.864;4.406;2023-02-21T03:10:13;16.20;70.40
25732;DHT22;13585;50.864;4.406;2023-02-21T03:17:53;16.20;70.40
25732;DHT22;13585;50.864;4.406;2023-02-21T03:20:21;16.20;70.50
25732;DHT22;13585;50.864;4.406;2023-02-21T03:22:49;16.20;70.40
25732;DHT22;13585;50.864;4.406;2023-02-21T03:25:17;16.20;70.40
25732;DHT22;13585;50.864;4.406;2023-02-21T03:27:43;16.20;70.40
25732;DHT22;13585;50.864;4.406;2023-02-21T03:30:10;16.20;70.30
25732;DHT22;13585;50.864;4.406;2023-02-21T03:32:39;16.20;70.30
25732;DHT22;13585;50.864;4.406;2023-02-21T03:35:08;16.20;70.30
25732;DHT22;13585;50.864;4.406;2023-02-21T03:37:40;16.20;70.20
25732;DHT22;13585;50.864;4.406;2023-02-21T03:40:12;16.20;70.20
25732;DHT22;13585;50.864;4.406;2023-02-21T03:42:38;16.20;70.20
25732;DHT22;13585;50.864;4.406;2023-02-21T03:45:05;16.20;70.30
25732;DHT22;13585;50.864;4.406;2023-02-21T03:47:31;16.20;70.20
25732;DHT22;13585;50.864;4.406;2023-02-21T03:49:57;16.20;70.20
25732;DHT22;13585;50.864;4.406;2023-02-21T03:52:22;16.20;70.20
25732;DHT22;13585;50.864;4.406;2023-02-21T03:54:48;16.20;70.20
25732;DHT22;13585;50.864;4.406;2023-02-21T03:57:15;16.10;70.10
25732;DHT22;13585;50.864;4.406;2023-02-21T03:59:40;16.20;70.20
25732;DHT22;13585;50.864;4.406;2023-02-21T04:02:06;16.20;70.10
25732;DHT22;13585;50.864;4.406;2023-02-21T04:04:32;16.20;70.10
25732;DHT22;13585;50.864;4.406;2023-02-21T04:06:57;16.20;70.10
25732;DHT22;13585;50.864;4.406;2023-02-21T04:09:23;16.20;70.10
25732;DHT22;13585;50.864;4.406;2023-02-21T04:11:50;16.20;70.10
25732;DHT22;13585;50.864;4.406;2023-02-21T04:14:16;16.20;70.10
25732;DHT22;13585;50.864;4.406;2023-02-21T04:16:42;16.20;70.00
25732;DHT22;13585;50.864;4.406;2023-02-21T04:19:07;16.20;70.10
25732;DHT22;13585;50.864;4.406;2023-02-21T04:21:36;16.20;70.00
25732;DHT22;13585;50.864;4.406;2023-02-21T04:24:05;16.20;70.00
25732;DHT22;13585;50.864;4.406;2023-02-21T04:26:31;16.20;70.00
25732;DHT22;13585;50.864;4.406;2023-02-21T04:29:00;16.20;70.00
25732;DHT22;13585;50.864;4.406;2023-02-21T04:31:26;16.10;70.10
25732;DHT22;13585;50.864;4.406;2023-02-21T04:33:52;16.20;70.00
25732;DHT22;13585;50.864;4.406;2023-02-21T04:36:17;16.20;70.00
25732;DHT22;13585;50.864;4.406;2023-02-21T04:38:43;16.20;70.00
25732;DHT22;13585;50.864;4.406;2023-02-21T04:41:09;16.20;70.00
25732;DHT22;13585;50.864;4.406;2023-02-21T04:43:34;16.20;70.00
25732;DHT22;13585;50.864;4.406;2023-02-21T04:46:00;16.10;69.80
25732;DHT22;13585;50.864;4.406;2023-02-21T04:48:26;16.20;70.00
25732;DHT22;13585;50.864;4.406;2023-02-21T04:50:51;16.20;69.90
25732;DHT22;13585;50.864;4.406;2023-02-21T04:53:17;16.20;69.90
25732;DHT22;13585;50.864;4.406;2023-02-21T04:55:43;16.20;69.90
25732;DHT22;13585;50.864;4.406;2023-02-21T04:58:08;16.20;69.80
25732;DHT22;13585;50.864;4.406;2023-02-21T05:00:34;16.20;69.80
25732;DHT22;13585;50.864;4.406;2023-02-21T05:03:00;16.20;69.80
25732;DHT22;13585;50.864;4.406;2023-02-21T05:05:25;16.10;69.80
25732;DHT22;13585;50.864;4.406;2023-02-21T05:07:51;16.10;69.80
25732;DHT22;13585;50.864;4.406;2023-02-21T05:10:17;16.20;69.80
25732;DHT22;13585;50.864;4.406;2023-02-21T05:12:43;16.20;69.80
25732;DHT22;13585;50.864;4.406;2023-02-21T05:15:09;16.20;69.80
25732;DHT22;13585;50.864;4.406;2023-02-21T05:17:36;16.20;69.80
25732;DHT22;13585;50.864;4.406;2023-02-21T05:20:03;16.10;69.70
25732;DHT22;13585;50.864;4.406;2023-02-21T05:22:29;16.20;69.70
25732;DHT22;13585;50.864;4.406;2023-02-21T05:24:55;16.20;69.80
25732;DHT22;13585;50.864;4.406;2023-02-21T05:27:21;16.20;69.70
25732;DHT22;13585;50.864;4.406;2023-02-21T05:29:48;16.20;69.70
25732;DHT22;13585;50.864;4.406;2023-02-21T05:32:15;16.20;69.70
25732;DHT22;13585;50.864;4.406;2023-02-21T05:34:42;16.20;69.70
25732;DHT22;13585;50.864;4.406;2023-02-21T05:37:13;16.20;69.70
25732;DHT22;13585;50.864;4.406;2023-02-21T05:39:39;16.10;69.60
25732;DHT22;13585;50.864;4.406;2023-02-21T05:42:07;16.20;69.70
25732;DHT22;13585;50.864;4.406;2023-02-21T05:44:33;16.10;69.60
25732;DHT22;13585;50.864;4.406;2023-02-21T05:46:59;16.10;69.60
25732;DHT22;13585;50.864;4.406;2023-02-21T05:49:24;16.10;69.60
25732;DHT22;13585;50.864;4.406;2023-02-21T05:51:52;16.10;69.60
25732;DHT22;13585;50.864;4.406;2023-02-21T05:54:19;16.10;69.60
25732;DHT22;13585;50.864;4.406;2023-02-21T05:56:53;16.10;69.60
25732;DHT22;13585;50.864;4.406;2023-02-21T05:59:19;16.10;69.60
25732;DHT22;13585;50.864;4.406;2023-02-21T06:01:47;16.10;69.50
25732;DHT22;13585;50.864;4.406;2023-02-21T06:04:12;16.10;69.60
25732;DHT22;13585;50.864;4.406;2023-02-21T06:06:38;16.10;69.50
25732;DHT22;13585;50.864;4.406;2023-02-21T06:09:05;16.10;69.50
25732;DHT22;13585;50.864;4.406;2023-02-21T06:11:33;16.10;69.50
25732;DHT22;13585;50.864;4.406;2023-02-21T06:14:08;16.10;69.50
25732;DHT22;13585;50.864;4.406;2023-02-21T06:16:37;16.10;69.50
25732;DHT22;13585;50.864;4.406;2023-02-21T06:19:06;16.10;69.50
25732;DHT22;13585;50.864;4.406;2023-02-21T06:21:32;16.10;69.50
25732;DHT22;13585;50.864;4.406;2023-02-21T06:24:00;16.10;69.50
25732;DHT22;13585;50.864;4.406;2023-02-21T06:26:27;16.10;69.50
25732;DHT22;13585;50.864;4.406;2023-02-21T06:29:04;16.20;69.60
25732;DHT22;13585;50.864;4.406;2023-02-21T06:31:32;16.10;69.60
25732;DHT22;13585;50.864;4.406;2023-02-21T06:34:03;16.20;69.70
25732;DHT22;13585;50.864;4.406;2023-02-21T06:36:29;16.20;69.70
25732;DHT22;13585;50.864;4.406;2023-02-21T06:38:56;16.20;69.70
25732;DHT22;13585;50.864;4.406;2023-02-21T06:41:29;16.10;69.70
25732;DHT22;13585;50.864;4.406;2023-02-21T06:43:56;16.10;69.70
25732;DHT22;13585;50.864;4.406;2023-02-21T06:46:24;16.20;69.80
25732;DHT22;13585;50.864;4.406;2023-02-21T06:48:53;16.20;69.90
25732;DHT22;13585;50.864;4.406;2023-02-21T06:51:22;16.20;69.90
25732;DHT22;13585;50.864;4.406;2023-02-21T06:53:54;16.20;70.00
25732;DHT22;13585;50.864;4.406;2023-02-21T06:56:19;16.30;70.00
25732;DHT22;13585;50.864;4.406;2023-02-21T06:58:45;16.20;70.00
25732;DHT22;13585;50.864;4.406;2023-02-21T07:01:12;16.20;70.10
25732;DHT22;13585;50.864;4.406;2023-02-21T07:03:39;16.20;70.10
25732;DHT22;13585;50.864;4.406;2023-02-21T07:06:05;16.20;70.10
25732;DHT22;13585;50.864;4.406;2023-02-21T07:08:30;16.30;70.20
25732;DHT22;13585;50.864;4.406;2023-02-21T07:10:56;16.20;70.20
25732;DHT22;13585;50.864;4.406;2023-02-21T07:16:44;16.30;70.40
25732;DHT22;13585;50.864;4.406;2023-02-21T07:19:19;16.30;70.30
25732;DHT22;13585;50.864;4.406;2023-02-21T07:21:45;16.20;70.30
25732;DHT22;13585;50.864;4.406;2023-02-21T07:24:16;16.20;70.30
25732;DHT22;13585;50.864;4.406;2023-02-21T07:26:41;16.20;70.40
25732;DHT22;13585;50.864;4.406;2023-02-21T07:29:07;16.30;70.40
25732;DHT22;13585;50.864;4.406;2023-02-21T07:31:38;16.20;70.30
25732;DHT22;13585;50.864;4.406;2023-02-21T07:34:10;16.20;70.40
25732;DHT22;13585;50.864;4.406;2023-02-21T07:36:37;16.30;70.40
25732;DHT22;13585;50.864;4.406;2023-02-21T07:39:06;16.30;70.40
25732;DHT22;13585;50.864;4.406;2023-02-21T07:41:52;16.30;70.40
25732;DHT22;13585;50.864;4.406;2023-02-21T07:44:33;16.30;70.50
25732;DHT22;13585;50.864;4.406;2023-02-21T07:47:10;16.30;70.50
25732;DHT22;13585;50.864;4.406;2023-02-21T07:49:43;16.30;70.30
25732;DHT22;13585;50.864;4.406;2023-02-21T07:52:11;16.30;70.40
25732;DHT22;13585;50.864;4.406;2023-02-21T07:54:42;16.30;70.40
25732;DHT22;13585;50.864;4.406;2023-02-21T07:57:08;16.20;70.40
25732;DHT22;13585;50.864;4.406;2023-02-21T07:59:33;16.30;70.40
25732;DHT22;13585;50.864;4.406;2023-02-21T08:04:52;16.20;70.20
25732;DHT22;13585;50.864;4.406;2023-02-21T08:07:18;16.30;70.30
25732;DHT22;13585;50.864;4.406;2023-02-21T08:09:44;16.30;70.30
25732;DHT22;13585;50.864;4.406;2023-02-21T08:12:10;16.30;70.30
25732;DHT22;13585;50.864;4.406;2023-02-21T08:14:36;16.30;70.30
25732;DHT22;13585;50.864;4.406;2023-02-21T08:17:01;16.30;70.30
25732;DHT22;13585;50.864;4.406;2023-02-21T08:19:27;16.30;70.30
25732;DHT22;13585;50.864;4.406;2023-02-21T08:21:52;16.20;70.20
25732;DHT22;13585;50.864;4.406;2023-02-21T08:24:18;16.20;70.20
25732;DHT22;13585;50.864;4.406;2023-02-21T08:26:44;16.30;70.20
25732;DHT22;13585;50.864;4.406;2023-02-21T08:29:11;16.30;70.20
25732;DHT22;13585;50.864;4.406;2023-02-21T08:31:38;16.20;70.10
25732;DHT22;13585;50.864;4.406;2023-02-21T08:34:04;16.20;70.10
25732;DHT22;13585;50.864;4.406;2023-02-21T08:36:39;16.20;70.00
25732;DHT22;13585;50.864;4.406;2023-02-21T08:39:06;16.20;70.00
25732;DHT22;13585;50.864;4.406;2023-02-21T08:44:06;16.20;70.00
25732;DHT22;13585;50.864;4.406;2023-02-21T08:46:32;16.20;70.00
25732;DHT22;13585;50.864;4.406;2023-02-21T08:48:57;16.30;70.00
25732;DHT22;13585;50.864;4.406;2023-02-21T08:51:25;16.20;69.90
25732;DHT22;13585;50.864;4.406;2023-02-21T08:54:11;16.20;69.90
25732;DHT22;13585;50.864;4.406;2023-02-21T08:56:36;16.20;69.80
25732;DHT22;13585;50.864;4.406;2023-02-21T08:59:25;16.30;69.90
25732;DHT22;13585;50.864;4.406;2023-02-21T09:02:22;16.20;69.90
25732;DHT22;13585;50.864;4.406;2023-02-21T09:05:08;16.30;70.00
25732;DHT22;13585;50.864;4.406;2023-02-21T09:08:09;16.20;69.90
25732;DHT22;13585;50.864;4.406;2023-02-21T09:10:58;16.20;69.90
25732;DHT22;13585;50.864;4.406;2023-02-21T09:16:36;16.20;69.90
25732;DHT22;13585;50.864;4.406;2023-02-21T09:19:02;16.20;69.90
25732;DHT22;13585;50.864;4.406;2023-02-21T09:21:31;16.20;70.00
25732;DHT22;13585;50.864;4.406;2023-02-21T09:24:13;16.30;69.90
25732;DHT22;13585;50.864;4.406;2023-02-21T09:26:47;16.20;70.00
25732;DHT22;13585;50.864;4.406;2023-02-21T09:29:13;16.20;69.90
25732;DHT22;13585;50.864;4.406;2023-02-21T09:31:40;16.20;69.80
25732;DHT22;13585;50.864;4.406;2023-02-21T09:34:06;16.20;69.80
25732;DHT22;13585;50.864;4.406;2023-02-21T09:36:35;16.20;69.80
25732;DHT22;13585;50.864;4.406;2023-02-21T09:39:00;16.20;69.80
25732;DHT22;13585;50.864;4.406;2023-02-21T09:41:31;16.20;69.70
25732;DHT22;13585;50.864;4.406;2023-02-21T09:43:57;16.20;69.70
25732;DHT22;13585;50.864;4.406;2023-02-21T09:46:39;16.20;69.70
25732;DHT22;13585;50.864;4.406;2023-02-21T09:49:14;16.20;69.70
25732;DHT22;13585;50.864;4.406;2023-02-21T09:51:43;16.20;69.60
25732;DHT22;13585;50.864;4.406;2023-02-21T09:54:38;16.20;69.70
25732;DHT22;13585;50.864;4.406;2023-02-21T09:57:08;16.20;69.70
25732;DHT22;13585;50.864;4.406;2023-02-21T09:59:35;16.20;69.60
25732;DHT22;13585;50.864;4.406;2023-02-21T10:10:31;16.20;69.50
25732;DHT22;13585;50.864;4.406;2023-02-21T10:20:59;16.20;69.50
25732;DHT22;13585;50.864;4.406;2023-02-21T10:23:45;16.20;69.50
25732;DHT22;13585;50.864;4.406;2023-02-21T10:26:30;16.20;69.40
25732;DHT22;13585;50.864;4.406;2023-02-21T10:29:00;16.20;69.50
25732;DHT22;13585;50.864;4.406;2023-02-21T10:31:35;16.30;69.40
25732;DHT22;13585;50.864;4.406;2023-02-21T10:34:37;16.20;69.50
25732;DHT22;13585;50.864;4.406;2023-02-21T10:55:31;16.20;69.30
25732;DHT22;13585;50.864;4.406;2023-02-21T10:58:17;16.10;69.30
25732;DHT22;13585;50.864;4.406;2023-02-21T11:03:58;16.20;69.20
25732;DHT22;13585;50.864;4.406;2023-02-21T11:06:56;16.20;69.20
25732;DHT22;13585;50.864;4.406;2023-02-21T11:09:44;16.20;69.20
25732;DHT22;13585;50.864;4.406;2023-02-21T11:12:30;16.10;69.30
25732;DHT22;13585;50.864;4.406;2023-02-21T11:17:36;16.20;69.20
25732;DHT22;13585;50.864;4.406;2023-02-21T11:20:20;16.10;69.30
25732;DHT22;13585;50.864;4.406;2023-02-21T11:22:49;16.10;69.30
25732;DHT22;13585;50.864;4.406;2023-02-21T11:28:04;16.20;69.40
25732;DHT22;13585;50.864;4.406;2023-02-21T11:30:33;16.10;69.30
25732;DHT22;13585;50.864;4.406;2023-02-21T11:33:00;16.10;69.20
25732;DHT22;13585;50.864;4.406;2023-02-21T11:35:50;16.20;69.30
25732;DHT22;13585;50.864;4.406;2023-02-21T11:38:37;16.10;69.40
25732;DHT22;13585;50.864;4.406;2023-02-21T11:44:00;16.10;69.40
25732;DHT22;13585;50.864;4.406;2023-02-21T12:10:51;16.20;69.50
25732;DHT22;13585;50.864;4.406;2023-02-21T12:26:55;16.20;69.80
25732;DHT22;13585;50.864;4.406;2023-02-21T12:29:44;16.20;69.80
25732;DHT22;13585;50.864;4.406;2023-02-21T12:46:12;16.10;69.80
25732;DHT22;13585;50.864;4.406;2023-02-21T12:51:38;16.10;69.80
25732;DHT22;13585;50.864;4.406;2023-02-21T12:54:10;16.10;69.80
25732;DHT22;13585;50.864;4.406;2023-02-21T13:07:10;16.10;69.80
25732;DHT22;13585;50.864;4.406;2023-02-21T13:12:37;16.10;69.80
25732;DHT22;13585;50.864;4.406;2023-02-21T13:15:34;16.10;69.70
25732;DHT22;13585;50.864;4.406;2023-02-21T13:24:00;16.10;69.70
25732;DHT22;13585;50.864;4.406;2023-02-21T13:26:52;16.10;69.70
25732;DHT22;13585;50.864;4.406;2023-02-21T13:29:30;16.10;69.70
25732;DHT22;13585;50.864;4.406;2023-02-21T13:32:10;16.10;69.60
25732;DHT22;13585;50.864;4.406;2023-02-21T13:34:40;16.10;69.70
25732;DHT22;13585;50.864;4.406;2023-02-21T13:37:17;16.10;69.70
25732;DHT22;13585;50.864;4.406;2023-02-21T13:42:41;16.20;69.70
25732;DHT22;13585;50.864;4.406;2023-02-21T13:45:17;16.10;69.60
25732;DHT22;13585;50.864;4.406;2023-02-21T13:50:49;16.10;69.60
25732;DHT22;13585;50.864;4.406;2023-02-21T13:53:18;16.10;69.60
25732;DHT22;13585;50.864;4.406;2023-02-21T13:56:12;16.20;69.60
25732;DHT22;13585;50.864;4.406;2023-02-21T13:58:42;16.20;69.70
25732;DHT22;13585;50.864;4.406;2023-02-21T14:03:48;16.10;69.60
25732;DHT22;13585;50.864;4.406;2023-02-21T14:08:54;16.10;69.60
25732;DHT22;13585;50.864;4.406;2023-02-21T14:11:25;16.10;69.50
25732;DHT22;13585;50.864;4.406;2023-02-21T14:13:55;16.20;69.60
25732;DHT22;13585;50.864;4.406;2023-02-21T14:16:31;16.10;69.50
25732;DHT22;13585;50.864;4.406;2023-02-21T14:24:24;16.10;69.50
25732;DHT22;13585;50.864;4.406;2023-02-21T14:30:26;16.10;69.50
25732;DHT22;13585;50.864;4.406;2023-02-21T14:33:24;16.20;69.50
25732;DHT22;13585;50.864;4.406;2023-02-21T14:36:09;16.10;69.40
25732;DHT22;13585;50.864;4.406;2023-02-21T14:38:41;16.10;69.50
25732;DHT22;13585;50.864;4.406;2023-02-21T14:41:19;16.10;69.40
25732;DHT22;13585;50.864;4.406;2023-02-21T14:52:00;16.10;69.50
25732;DHT22;13585;50.864;4.406;2023-02-21T14:54:45;16.10;69.40
25732;DHT22;13585;50.864;4.406;2023-02-21T15:00:46;16.10;69.40
25732;DHT22;13585;50.864;4.406;2023-02-21T15:03:37;16.10;69.40
25732;DHT22;13585;50.864;4.406;2023-02-21T15:06:10;16.10;70.10
25732;DHT22;13585;50.864;4.406;2023-02-21T15:08:46;16.10;69.40
25732;DHT22;13585;50.864;4.406;2023-02-21T15:11:33;16.10;69.40
25732;DHT22;13585;50.864;4.406;2023-02-21T15:14:22;16.10;69.40
25732;DHT22;13585;50.864;4.406;2023-02-21T15:16:57;16.10;69.30
25732;DHT22;13585;50.864;4.406;2023-02-21T15:19:33;16.10;69.40
25732;DHT22;13585;50.864;4.406;2023-02-21T15:22:21;16.10;69.40
25732;DHT22;13585;50.864;4.406;2023-02-21T15:30:20;16.10;69.30
25732;DHT22;13585;50.864;4.406;2023-02-21T15:33:06;16.10;69.20
25732;DHT22;13585;50.864;4.406;2023-02-21T15:35:38;16.10;69.10
25732;DHT22;13585;50.864;4.406;2023-02-21T15:38:19;16.10;69.20
25732;DHT22;13585;50.864;4.406;2023-02-21T15:40:47;16.10;69.30
25732;DHT22;13585;50.864;4.406;2023-02-21T15:43:30;16.10;69.20
25732;DHT22;13585;50.864;4.406;2023-02-21T15:45:59;16.10;69.40
25732;DHT22;13585;50.864;4.406;2023-02-21T15:48:26;16.10;69.20
25732;DHT22;13585;50.864;4.406;2023-02-21T15:50:51;16.10;69.20
25732;DHT22;13585;50.864;4.406;2023-02-21T15:53:22;16.10;69.30
25732;DHT22;13585;50.864;4.406;2023-02-21T15:55:50;16.10;69.30
25732;DHT22;13585;50.864;4.406;2023-02-21T15:58:23;16.10;69.20
25732;DHT22;13585;50.864;4.406;2023-02-21T16:01:05;16.10;69.20
25732;DHT22;13585;50.864;4.406;2023-02-21T16:06:21;16.10;69.10
25732;DHT22;13585;50.864;4.406;2023-02-21T16:08:58;16.10;69.20
25732;DHT22;13585;50.864;4.406;2023-02-21T16:26:32;16.10;69.20
25732;DHT22;13585;50.864;4.406;2023-02-21T16:31:30;16.10;69.10
25732;DHT22;13585;50.864;4.406;2023-02-21T16:34:15;16.10;69.20
25732;DHT22;13585;50.864;4.406;2023-02-21T16:39:24;16.10;69.20
25732;DHT22;13585;50.864;4.406;2023-02-21T16:41:59;16.10;69.20
25732;DHT22;13585;50.864;4.406;2023-02-21T16:44:36;16.10;69.30
25732;DHT22;13585;50.864;4.406;2023-02-21T16:47:06;16.10;69.40
25732;DHT22;13585;50.864;4.406;2023-02-21T16:49:37;16.00;69.20
25732;DHT22;13585;50.864;4.406;2023-02-21T16:52:16;16.10;69.20
25732;DHT22;13585;50.864;4.406;2023-02-21T16:54:50;16.10;69.20
25732;DHT22;13585;50.864;4.406;2023-02-21T16:57:37;16.10;69.20
25732;DHT22;13585;50.864;4.406;2023-02-21T17:00:03;16.10;69.20
25732;DHT22;13585;50.864;4.406;2023-02-21T17:02:29;16.10;69.10
25732;DHT22;13585;50.864;4.406;2023-02-21T17:04:55;16.10;69.20
25732;DHT22;13585;50.864;4.406;2023-02-21T17:07:20;16.10;69.10
25732;DHT22;13585;50.864;4.406;2023-02-21T17:09:48;16.10;69.10
25732;DHT22;13585;50.864;4.406;2023-02-21T17:12:15;16.10;69.10
25732;DHT22;13585;50.864;4.406;2023-02-21T17:14:40;16.10;69.10
25732;DHT22;13585;50.864;4.406;2023-02-21T17:17:06;16.10;69.10
25732;DHT22;13585;50.864;4.406;2023-02-21T17:19:33;16.00;69.00
25732;DHT22;13585;50.864;4.406;2023-02-21T17:21:59;16.10;69.10
25732;DHT22;13585;50.864;4.406;2023-02-21T17:24:25;16.00;69.00
25732;DHT22;13585;50.864;4.406;2023-02-21T17:27:02;16.10;69.10
25732;DHT22;13585;50.864;4.406;2023-02-21T17:29:45;16.10;69.20
25732;DHT22;13585;50.864;4.406;2023-02-21T17:32:11;16.10;69.10
25732;DHT22;13585;50.864;4.406;2023-02-21T17:34:51;16.10;69.10
25732;DHT22;13585;50.864;4.406;2023-02-21T17:37:17;16.10;69.10
25732;DHT22;13585;50.864;4.406;2023-02-21T17:39:53;16.10;69.20
25732;DHT22;13585;50.864;4.406;2023-02-21T17:42:19;16.10;69.30
25732;DHT22;13585;50.864;4.406;2023-02-21T17:44:47;16.10;69.30
25732;DHT22;13585;50.864;4.406;2023-02-21T17:47:21;16.00;69.40
25732;DHT22;13585;50.864;4.406;2023-02-21T17:49:48;16.10;69.50
25732;DHT22;13585;50.864;4.406;2023-02-21T17:52:14;16.10;69.60
25732;DHT22;13585;50.864;4.406;2023-02-21T17:54:40;16.10;69.70
25732;DHT22;13585;50.864;4.406;2023-02-21T17:57:07;16.10;70.50
25732;DHT22;13585;50.864;4.406;2023-02-21T17:59:48;16.10;69.80
25732;DHT22;13585;50.864;4.406;2023-02-21T18:02:32;16.10;70.10
25732;DHT22;13585;50.864;4.406;2023-02-21T18:05:22;16.10;70.20
25732;DHT22;13585;50.864;4.406;2023-02-21T18:07:50;16.20;70.30
25732;DHT22;13585;50.864;4.406;2023-02-21T18:10:32;16.20;70.30
25732;DHT22;13585;50.864;4.406;2023-02-21T18:13:34;16.30;70.50
25732;DHT22;13585;50.864;4.406;2023-02-21T18:16:00;16.10;70.50
25732;DHT22;13585;50.864;4.406;2023-02-21T18:18:38;16.20;70.60
25732;DHT22;13585;50.864;4.406;2023-02-21T18:23:57;16.10;70.80
25732;DHT22;13585;50.864;4.406;2023-02-21T18:28:58;16.20;71.00
25732;DHT22;13585;50.864;4.406;2023-02-21T18:31:24;16.20;71.10
25732;DHT22;13585;50.864;4.406;2023-02-21T18:33:55;16.20;71.20
25732;DHT22;13585;50.864;4.406;2023-02-21T18:39:22;16.20;71.40
25732;DHT22;13585;50.864;4.406;2023-02-21T18:44:36;16.20;71.40
25732;DHT22;13585;50.864;4.406;2023-02-21T18:47:11;16.20;71.60
25732;DHT22;13585;50.864;4.406;2023-02-21T18:49:41;16.20;71.70
25732;DHT22;13585;50.864;4.406;2023-02-21T18:52:09;16.20;71.80
25732;DHT22;13585;50.864;4.406;2023-02-21T18:54:35;16.20;71.80
25732;DHT22;13585;50.864;4.406;2023-02-21T18:57:01;16.30;71.90
25732;DHT22;13585;50.864;4.406;2023-02-21T18:59:27;16.20;71.90
25732;DHT22;13585;50.864;4.406;2023-02-21T19:01:53;16.20;72.00
25732;DHT22;13585;50.864;4.406;2023-02-21T19:04:25;16.20;72.10
25732;DHT22;13585;50.864;4.406;2023-02-21T19:09:54;16.30;72.20
25732;DHT22;13585;50.864;4.406;2023-02-21T19:12:20;16.20;72.30
25732;DHT22;13585;50.864;4.406;2023-02-21T19:14:46;16.30;72.30
25732;DHT22;13585;50.864;4.406;2023-02-21T19:17:11;16.30;72.30
25732;DHT22;13585;50.864;4.406;2023-02-21T19:19:37;16.30;72.40
25732;DHT22;13585;50.864;4.406;2023-02-21T19:22:03;16.30;72.40
25732;DHT22;13585;50.864;4.406;2023-02-21T19:24:29;16.30;72.40
25732;DHT22;13585;50.864;4.406;2023-02-21T19:26:57;16.20;72.40
25732;DHT22;13585;50.864;4.406;2023-02-21T19:29:23;16.30;72.50
25732;DHT22;13585;50.864;4.406;2023-02-21T19:31:49;16.30;72.40
25732;DHT22;13585;50.864;4.406;2023-02-21T19:34:15;16.30;72.50
25732;DHT22;13585;50.864;4.406;2023-02-21T19:36:40;16.30;72.40
25732;DHT22;13585;50.864;4.406;2023-02-21T19:39:07;16.30;72.50
25732;DHT22;13585;50.864;4.406;2023-02-21T19:41:34;16.30;72.50
25732;DHT22;13585;50.864;4.406;2023-02-21T19:44:04;16.30;72.50
25732;DHT22;13585;50.864;4.406;2023-02-21T19:46:39;16.30;72.40
25732;DHT22;13585;50.864;4.406;2023-02-21T19:49:16;16.20;72.30
25732;DHT22;13585;50.864;4.406;2023-02-21T19:51:44;16.30;72.40
25732;DHT22;13585;50.864;4.406;2023-02-21T19:54:11;16.30;72.40
25732;DHT22;13585;50.864;4.406;2023-02-21T19:56:37;16.40;72.40
25732;DHT22;13585;50.864;4.406;2023-02-21T19:59:03;16.30;72.40
25732;DHT22;13585;50.864;4.406;2023-02-21T20:01:31;16.30;72.30
25732;DHT22;13585;50.864;4.406;2023-02-21T20:04:00;16.30;72.30
25732;DHT22;13585;50.864;4.406;2023-02-21T20:06:27;16.20;72.30